Terminal Aerodrome Forecast
Issued by NWS

Home | Current Version | Previous Version | Graphics & Text | Print | Product List | Glossary On
Versions: 1 2 3 4 5 6 7 8 9 10 11 12 13 14 15 16 17 18 19 20 21
000
FTUS43 KBIS 230534
TAFDIK
TAF
KDIK 230534Z 2306/2406 32008KT P6SM VCSH BKN015 OVC040
      TEMPO 2306/2309 -SHRA BKN010 OVC020
     FM230900 35007KT P6SM BKN015 OVC020
     FM231100 34005KT P6SM BKN008 OVC020
     FM231800 01010KT P6SM -SHRA BKN010 OVC025
     FM240000 02012KT 4SM SHRA BKN008 OVC025
     FM240300 02012KT 5SM SHRA BKN003 OVC010=

USA.gov is the U.S. government's official web portal to all federal, state and local government web resources and services.